sensor_id;sensor_type;location;lat;lon;timestamp;P1;durP1;ratioP1;P2;durP2;ratioP2
35312;SDS011;21425;50.454;30.466;2022-12-07T00:01:15;19.83;;;7.40;;
35312;SDS011;21425;50.454;30.466;2022-12-07T00:03:44;19.00;;;7.72;;
35312;SDS011;21425;50.454;30.466;2022-12-07T00:06:12;21.83;;;7.57;;
35312;SDS011;21425;50.454;30.466;2022-12-07T00:08:39;20.73;;;8.10;;
35312;SDS011;21425;50.454;30.466;2022-12-07T00:11:06;19.85;;;7.80;;
35312;SDS011;21425;50.454;30.466;2022-12-07T00:13:32;17.55;;;8.18;;
35312;SDS011;21425;50.454;30.466;2022-12-07T00:16:02;16.30;;;6.88;;
35312;SDS011;21425;50.454;30.466;2022-12-07T00:18:32;21.38;;;8.70;;
35312;SDS011;21425;50.454;30.466;2022-12-07T00:23:31;17.60;;;7.32;;
35312;SDS011;21425;50.454;30.466;2022-12-07T00:26:02;19.77;;;7.28;;
35312;SDS011;21425;50.454;30.466;2022-12-07T00:28:39;17.30;;;6.68;;
35312;SDS011;21425;50.454;30.466;2022-12-07T00:31:06;19.77;;;6.80;;
35312;SDS011;21425;50.454;30.466;2022-12-07T00:33:33;20.45;;;7.63;;
35312;SDS011;21425;50.454;30.466;2022-12-07T00:36:00;18.05;;;7.72;;
35312;SDS011;21425;50.454;30.466;2022-12-07T00:38:29;14.00;;;6.05;;
35312;SDS011;21425;50.454;30.466;2022-12-07T00:40:57;20.38;;;7.15;;
35312;SDS011;21425;50.454;30.466;2022-12-07T00:43:23;28.00;;;7.50;;
35312;SDS011;21425;50.454;30.466;2022-12-07T00:45:49;18.17;;;7.13;;
35312;SDS011;21425;50.454;30.466;2022-12-07T00:48:14;12.98;;;7.00;;
35312;SDS011;21425;50.454;30.466;2022-12-07T00:50:40;16.08;;;6.40;;
35312;SDS011;21425;50.454;30.466;2022-12-07T00:53:06;18.88;;;6.45;;
35312;SDS011;21425;50.454;30.466;2022-12-07T00:55:32;15.75;;;6.78;;
35312;SDS011;21425;50.454;30.466;2022-12-07T00:57:58;16.63;;;6.75;;
35312;SDS011;21425;50.454;30.466;2022-12-07T01:00:24;17.65;;;6.90;;
35312;SDS011;21425;50.454;30.466;2022-12-07T01:02:50;18.15;;;7.07;;
35312;SDS011;21425;50.454;30.466;2022-12-07T01:05:15;11.98;;;6.05;;
35312;SDS011;21425;50.454;30.466;2022-12-07T01:07:41;16.58;;;6.88;;
35312;SDS011;21425;50.454;30.466;2022-12-07T01:10:06;17.15;;;7.50;;
35312;SDS011;21425;50.454;30.466;2022-12-07T01:12:32;17.08;;;7.28;;
35312;SDS011;21425;50.454;30.466;2022-12-07T01:14:58;14.05;;;6.03;;
35312;SDS011;21425;50.454;30.466;2022-12-07T01:17:23;15.77;;;6.50;;
35312;SDS011;21425;50.454;30.466;2022-12-07T01:19:49;17.63;;;7.00;;
35312;SDS011;21425;50.454;30.466;2022-12-07T01:22:14;19.50;;;7.28;;
35312;SDS011;21425;50.454;30.466;2022-12-07T01:24:40;17.48;;;6.93;;
35312;SDS011;21425;50.454;30.466;2022-12-07T01:27:05;19.02;;;6.90;;
35312;SDS011;21425;50.454;30.466;2022-12-07T01:29:31;16.63;;;6.68;;
35312;SDS011;21425;50.454;30.466;2022-12-07T01:31:57;17.35;;;6.55;;
35312;SDS011;21425;50.454;30.466;2022-12-07T01:34:22;16.58;;;6.53;;
35312;SDS011;21425;50.454;30.466;2022-12-07T01:36:48;16.88;;;7.10;;
35312;SDS011;21425;50.454;30.466;2022-12-07T01:39:13;32.55;;;7.88;;
35312;SDS011;21425;50.454;30.466;2022-12-07T01:41:39;19.00;;;8.02;;
35312;SDS011;21425;50.454;30.466;2022-12-07T01:46:36;23.77;;;6.57;;
35312;SDS011;21425;50.454;30.466;2022-12-07T01:49:03;19.15;;;7.00;;
35312;SDS011;21425;50.454;30.466;2022-12-07T01:51:35;17.25;;;7.70;;
35312;SDS011;21425;50.454;30.466;2022-12-07T01:54:02;14.48;;;6.68;;
35312;SDS011;21425;50.454;30.466;2022-12-07T01:56:28;17.52;;;7.10;;
35312;SDS011;21425;50.454;30.466;2022-12-07T01:58:55;17.85;;;7.72;;
35312;SDS011;21425;50.454;30.466;2022-12-07T02:01:23;16.77;;;7.63;;
35312;SDS011;21425;50.454;30.466;2022-12-07T02:03:49;24.88;;;6.88;;
35312;SDS011;21425;50.454;30.466;2022-12-07T02:06:20;24.50;;;7.70;;
35312;SDS011;21425;50.454;30.466;2022-12-07T02:08:49;16.05;;;6.70;;
35312;SDS011;21425;50.454;30.466;2022-12-07T02:11:15;15.45;;;6.20;;
35312;SDS011;21425;50.454;30.466;2022-12-07T02:13:41;19.23;;;6.82;;
35312;SDS011;21425;50.454;30.466;2022-12-07T02:16:32;19.80;;;6.90;;
35312;SDS011;21425;50.454;30.466;2022-12-07T02:28:05;13.07;;;6.32;;
35312;SDS011;21425;50.454;30.466;2022-12-07T02:30:33;22.52;;;8.18;;
35312;SDS011;21425;50.454;30.466;2022-12-07T02:33:04;19.00;;;8.50;;
35312;SDS011;21425;50.454;30.466;2022-12-07T02:35:56;18.17;;;8.02;;
35312;SDS011;21425;50.454;30.466;2022-12-07T02:38:44;22.23;;;8.52;;
35312;SDS011;21425;50.454;30.466;2022-12-07T02:43:46;17.75;;;8.05;;
35312;SDS011;21425;50.454;30.466;2022-12-07T02:46:17;15.90;;;7.13;;
35312;SDS011;21425;50.454;30.466;2022-12-07T02:48:47;22.75;;;7.65;;
35312;SDS011;21425;50.454;30.466;2022-12-07T02:51:14;20.52;;;6.97;;
35312;SDS011;21425;50.454;30.466;2022-12-07T02:53:42;18.05;;;8.10;;
35312;SDS011;21425;50.454;30.466;2022-12-07T02:58:50;19.20;;;8.70;;
35312;SDS011;21425;50.454;30.466;2022-12-07T03:07:00;17.92;;;8.18;;
35312;SDS011;21425;50.454;30.466;2022-12-07T03:16:02;29.95;;;9.02;;
35312;SDS011;21425;50.454;30.466;2022-12-07T03:18:35;27.05;;;9.68;;
35312;SDS011;21425;50.454;30.466;2022-12-07T03:21:06;23.27;;;9.80;;
35312;SDS011;21425;50.454;30.466;2022-12-07T03:23:37;27.52;;;10.52;;
35312;SDS011;21425;50.454;30.466;2022-12-07T03:26:05;34.33;;;11.50;;
35312;SDS011;21425;50.454;30.466;2022-12-07T03:28:36;26.75;;;8.57;;
35312;SDS011;21425;50.454;30.466;2022-12-07T03:31:10;31.15;;;10.57;;
35312;SDS011;21425;50.454;30.466;2022-12-07T03:33:49;27.67;;;10.77;;
35312;SDS011;21425;50.454;30.466;2022-12-07T03:36:30;28.92;;;10.82;;
35312;SDS011;21425;50.454;30.466;2022-12-07T03:42:18;31.27;;;10.73;;
35312;SDS011;21425;50.454;30.466;2022-12-07T03:44:44;37.65;;;10.93;;
35312;SDS011;21425;50.454;30.466;2022-12-07T03:47:15;38.63;;;12.20;;
35312;SDS011;21425;50.454;30.466;2022-12-07T03:52:34;30.67;;;10.85;;
35312;SDS011;21425;50.454;30.466;2022-12-07T03:57:39;46.90;;;13.80;;
35312;SDS011;21425;50.454;30.466;2022-12-07T04:00:08;31.48;;;11.80;;
35312;SDS011;21425;50.454;30.466;2022-12-07T04:02:35;30.23;;;11.90;;
35312;SDS011;21425;50.454;30.466;2022-12-07T04:05:01;21.40;;;8.85;;
35312;SDS011;21425;50.454;30.466;2022-12-07T04:07:27;38.78;;;10.95;;
35312;SDS011;21425;50.454;30.466;2022-12-07T04:09:53;26.92;;;10.60;;
35312;SDS011;21425;50.454;30.466;2022-12-07T04:12:20;33.70;;;12.32;;
35312;SDS011;21425;50.454;30.466;2022-12-07T04:14:46;28.85;;;9.88;;
35312;SDS011;21425;50.454;30.466;2022-12-07T04:17:12;28.65;;;10.05;;
35312;SDS011;21425;50.454;30.466;2022-12-07T04:19:37;36.65;;;11.75;;
35312;SDS011;21425;50.454;30.466;2022-12-07T04:22:03;32.53;;;10.68;;
35312;SDS011;21425;50.454;30.466;2022-12-07T04:24:30;26.98;;;11.82;;
35312;SDS011;21425;50.454;30.466;2022-12-07T04:26:56;27.95;;;10.52;;
35312;SDS011;21425;50.454;30.466;2022-12-07T04:29:22;37.38;;;11.40;;
35312;SDS011;21425;50.454;30.466;2022-12-07T04:31:47;30.42;;;11.25;;
35312;SDS011;21425;50.454;30.466;2022-12-07T04:34:14;27.40;;;10.85;;
35312;SDS011;21425;50.454;30.466;2022-12-07T04:36:40;29.38;;;10.95;;
35312;SDS011;21425;50.454;30.466;2022-12-07T04:39:07;26.52;;;9.35;;
35312;SDS011;21425;50.454;30.466;2022-12-07T04:41:38;23.13;;;10.15;;
35312;SDS011;21425;50.454;30.466;2022-12-07T04:44:04;27.27;;;10.00;;
35312;SDS011;21425;50.454;30.466;2022-12-07T04:46:32;24.73;;;10.02;;
35312;SDS011;21425;50.454;30.466;2022-12-07T04:48:58;24.88;;;9.27;;
35312;SDS011;21425;50.454;30.466;2022-12-07T04:51:25;23.58;;;9.73;;
35312;SDS011;21425;50.454;30.466;2022-12-07T04:53:52;22.15;;;8.52;;
35312;SDS011;21425;50.454;30.466;2022-12-07T04:56:18;33.03;;;10.75;;
35312;SDS011;21425;50.454;30.466;2022-12-07T04:58:45;22.77;;;9.57;;
35312;SDS011;21425;50.454;30.466;2022-12-07T05:01:12;28.17;;;9.35;;
35312;SDS011;21425;50.454;30.466;2022-12-07T05:03:39;31.75;;;9.68;;
35312;SDS011;21425;50.454;30.466;2022-12-07T05:06:05;32.45;;;10.27;;
35312;SDS011;21425;50.454;30.466;2022-12-07T05:08:34;34.65;;;12.55;;
35312;SDS011;21425;50.454;30.466;2022-12-07T05:11:00;33.45;;;10.50;;
35312;SDS011;21425;50.454;30.466;2022-12-07T05:13:27;27.95;;;10.23;;
35312;SDS011;21425;50.454;30.466;2022-12-07T05:15:52;24.55;;;9.48;;
35312;SDS011;21425;50.454;30.466;2022-12-07T05:18:18;31.42;;;11.27;;
35312;SDS011;21425;50.454;30.466;2022-12-07T05:20:44;24.10;;;9.90;;
35312;SDS011;21425;50.454;30.466;2022-12-07T05:23:09;21.77;;;9.90;;
35312;SDS011;21425;50.454;30.466;2022-12-07T05:25:35;30.73;;;10.40;;
35312;SDS011;21425;50.454;30.466;2022-12-07T05:28:01;24.70;;;9.80;;
35312;SDS011;21425;50.454;30.466;2022-12-07T05:30:28;26.88;;;9.88;;
35312;SDS011;21425;50.454;30.466;2022-12-07T05:32:54;20.10;;;7.72;;
35312;SDS011;21425;50.454;30.466;2022-12-07T05:35:20;20.83;;;8.13;;
35312;SDS011;21425;50.454;30.466;2022-12-07T05:37:46;24.45;;;9.55;;
35312;SDS011;21425;50.454;30.466;2022-12-07T05:40:13;23.38;;;9.32;;
35312;SDS011;21425;50.454;30.466;2022-12-07T05:42:39;22.92;;;8.88;;
35312;SDS011;21425;50.454;30.466;2022-12-07T05:45:05;16.73;;;7.47;;
35312;SDS011;21425;50.454;30.466;2022-12-07T05:47:32;21.92;;;8.50;;
35312;SDS011;21425;50.454;30.466;2022-12-07T05:49:57;28.85;;;9.15;;
35312;SDS011;21425;50.454;30.466;2022-12-07T05:52:23;17.30;;;8.27;;
35312;SDS011;21425;50.454;30.466;2022-12-07T05:54:49;29.17;;;9.73;;
35312;SDS011;21425;50.454;30.466;2022-12-07T05:57:14;23.20;;;8.57;;
35312;SDS011;21425;50.454;30.466;2022-12-07T05:59:40;32.00;;;9.32;;
35312;SDS011;21425;50.454;30.466;2022-12-07T06:02:07;28.85;;;9.15;;
35312;SDS011;21425;50.454;30.466;2022-12-07T06:04:35;30.63;;;8.93;;
35312;SDS011;21425;50.454;30.466;2022-12-07T06:07:02;20.25;;;7.95;;
35312;SDS011;21425;50.454;30.466;2022-12-07T06:09:29;19.63;;;8.23;;
35312;SDS011;21425;50.454;30.466;2022-12-07T06:11:55;24.23;;;8.15;;
35312;SDS011;21425;50.454;30.466;2022-12-07T06:14:40;21.98;;;8.45;;
35312;SDS011;21425;50.454;30.466;2022-12-07T06:17:05;23.42;;;9.48;;
35312;SDS011;21425;50.454;30.466;2022-12-07T06:19:32;28.77;;;8.38;;
35312;SDS011;21425;50.454;30.466;2022-12-07T06:21:57;18.85;;;7.82;;
35312;SDS011;21425;50.454;30.466;2022-12-07T06:24:23;20.60;;;9.23;;
35312;SDS011;21425;50.454;30.466;2022-12-07T06:26:49;21.10;;;7.97;;
35312;SDS011;21425;50.454;30.466;2022-12-07T06:29:15;21.55;;;8.90;;
35312;SDS011;21425;50.454;30.466;2022-12-07T06:31:41;25.98;;;8.65;;
35312;SDS011;21425;50.454;30.466;2022-12-07T06:34:09;21.17;;;9.10;;
35312;SDS011;21425;50.454;30.466;2022-12-07T06:36:37;21.08;;;8.45;;
35312;SDS011;21425;50.454;30.466;2022-12-07T06:39:02;26.02;;;8.95;;
35312;SDS011;21425;50.454;30.466;2022-12-07T06:41:28;19.58;;;8.25;;
35312;SDS011;21425;50.454;30.466;2022-12-07T06:43:54;25.63;;;8.63;;
35312;SDS011;21425;50.454;30.466;2022-12-07T06:46:20;17.25;;;7.97;;
35312;SDS011;21425;50.454;30.466;2022-12-07T06:48:46;18.60;;;8.43;;
35312;SDS011;21425;50.454;30.466;2022-12-07T06:51:12;20.15;;;7.63;;
35312;SDS011;21425;50.454;30.466;2022-12-07T06:53:37;26.35;;;8.45;;
35312;SDS011;21425;50.454;30.466;2022-12-07T06:56:03;24.38;;;8.88;;
35312;SDS011;21425;50.454;30.466;2022-12-07T06:58:29;18.80;;;8.70;;
35312;SDS011;21425;50.454;30.466;2022-12-07T07:00:55;17.33;;;8.05;;
35312;SDS011;21425;50.454;30.466;2022-12-07T07:03:21;20.55;;;8.00;;
35312;SDS011;21425;50.454;30.466;2022-12-07T07:05:47;19.50;;;7.80;;
35312;SDS011;21425;50.454;30.466;2022-12-07T07:08:12;24.17;;;8.38;;
35312;SDS011;21425;50.454;30.466;2022-12-07T07:10:38;16.42;;;7.53;;
35312;SDS011;21425;50.454;30.466;2022-12-07T07:13:04;19.63;;;8.27;;
35312;SDS011;21425;50.454;30.466;2022-12-07T07:15:30;18.77;;;8.52;;
35312;SDS011;21425;50.454;30.466;2022-12-07T07:17:57;19.90;;;8.70;;
35312;SDS011;21425;50.454;30.466;2022-12-07T07:20:22;25.33;;;9.50;;
35312;SDS011;21425;50.454;30.466;2022-12-07T07:22:48;21.63;;;8.15;;
35312;SDS011;21425;50.454;30.466;2022-12-07T07:25:14;17.13;;;7.60;;
35312;SDS011;21425;50.454;30.466;2022-12-07T07:27:40;22.40;;;9.35;;
35312;SDS011;21425;50.454;30.466;2022-12-07T07:30:06;21.58;;;8.65;;
35312;SDS011;21425;50.454;30.466;2022-12-07T07:32:32;22.63;;;9.38;;
35312;SDS011;21425;50.454;30.466;2022-12-07T07:34:58;32.67;;;10.13;;
35312;SDS011;21425;50.454;30.466;2022-12-07T07:37:23;27.75;;;9.90;;
35312;SDS011;21425;50.454;30.466;2022-12-07T07:39:49;29.48;;;10.70;;
35312;SDS011;21425;50.454;30.466;2022-12-07T07:42:15;25.75;;;9.82;;
35312;SDS011;21425;50.454;30.466;2022-12-07T07:44:41;26.23;;;9.20;;
35312;SDS011;21425;50.454;30.466;2022-12-07T07:47:06;29.25;;;9.45;;
35312;SDS011;21425;50.454;30.466;2022-12-07T07:49:32;18.45;;;8.35;;
35312;SDS011;21425;50.454;30.466;2022-12-07T07:51:57;26.27;;;9.65;;
35312;SDS011;21425;50.454;30.466;2022-12-07T07:54:23;22.45;;;9.70;;
35312;SDS011;21425;50.454;30.466;2022-12-07T07:56:48;25.90;;;8.98;;
35312;SDS011;21425;50.454;30.466;2022-12-07T07:59:14;27.15;;;9.93;;
35312;SDS011;21425;50.454;30.466;2022-12-07T08:01:40;25.23;;;9.15;;
35312;SDS011;21425;50.454;30.466;2022-12-07T08:04:06;27.65;;;10.75;;
35312;SDS011;21425;50.454;30.466;2022-12-07T08:06:32;25.70;;;10.95;;
35312;SDS011;21425;50.454;30.466;2022-12-07T08:08:57;23.40;;;10.05;;
35312;SDS011;21425;50.454;30.466;2022-12-07T08:11:23;28.27;;;10.27;;
35312;SDS011;21425;50.454;30.466;2022-12-07T08:13:49;24.00;;;11.10;;
35312;SDS011;21425;50.454;30.466;2022-12-07T08:16:15;23.42;;;10.80;;
35312;SDS011;21425;50.454;30.466;2022-12-07T08:18:41;24.88;;;9.52;;
35312;SDS011;21425;50.454;30.466;2022-12-07T08:21:13;22.55;;;10.18;;
35312;SDS011;21425;50.454;30.466;2022-12-07T08:23:40;22.42;;;9.68;;
35312;SDS011;21425;50.454;30.466;2022-12-07T08:26:07;22.13;;;10.43;;
35312;SDS011;21425;50.454;30.466;2022-12-07T08:28:34;26.67;;;10.32;;
35312;SDS011;21425;50.454;30.466;2022-12-07T08:31:03;24.60;;;10.02;;
35312;SDS011;21425;50.454;30.466;2022-12-07T08:33:31;29.15;;;10.70;;
35312;SDS011;21425;50.454;30.466;2022-12-07T08:36:04;29.30;;;10.68;;
35312;SDS011;21425;50.454;30.466;2022-12-07T08:38:31;29.88;;;11.75;;
35312;SDS011;21425;50.454;30.466;2022-12-07T08:40:58;38.53;;;13.48;;
35312;SDS011;21425;50.454;30.466;2022-12-07T08:43:24;27.52;;;10.90;;
35312;SDS011;21425;50.454;30.466;2022-12-07T08:45:53;28.75;;;11.60;;
35312;SDS011;21425;50.454;30.466;2022-12-07T08:48:55;26.30;;;10.40;;
35312;SDS011;21425;50.454;30.466;2022-12-07T08:51:43;20.92;;;9.75;;
35312;SDS011;21425;50.454;30.466;2022-12-07T08:54:11;29.10;;;11.32;;
35312;SDS011;21425;50.454;30.466;2022-12-07T08:56:39;23.73;;;11.15;;
35312;SDS011;21425;50.454;30.466;2022-12-07T08:59:05;25.75;;;10.48;;
35312;SDS011;21425;50.454;30.466;2022-12-07T09:01:32;30.67;;;10.20;;
35312;SDS011;21425;50.454;30.466;2022-12-07T09:03:58;30.60;;;12.93;;
35312;SDS011;21425;50.454;30.466;2022-12-07T09:06:23;24.73;;;10.63;;
35312;SDS011;21425;50.454;30.466;2022-12-07T09:08:50;24.65;;;12.32;;
35312;SDS011;21425;50.454;30.466;2022-12-07T09:11:19;26.85;;;10.32;;
35312;SDS011;21425;50.454;30.466;2022-12-07T09:13:44;32.63;;;11.90;;
35312;SDS011;21425;50.454;30.466;2022-12-07T09:16:10;24.25;;;9.52;;
35312;SDS011;21425;50.454;30.466;2022-12-07T09:18:36;28.40;;;12.10;;
35312;SDS011;21425;50.454;30.466;2022-12-07T09:21:03;26.98;;;11.10;;
35312;SDS011;21425;50.454;30.466;2022-12-07T09:23:29;28.58;;;11.52;;
35312;SDS011;21425;50.454;30.466;2022-12-07T09:25:54;28.52;;;11.50;;
35312;SDS011;21425;50.454;30.466;2022-12-07T09:28:23;40.28;;;13.48;;
35312;SDS011;21425;50.454;30.466;2022-12-07T09:30:49;32.60;;;12.63;;
35312;SDS011;21425;50.454;30.466;2022-12-07T09:33:14;26.13;;;12.38;;
35312;SDS011;21425;50.454;30.466;2022-12-07T09:35:47;23.42;;;10.40;;
35312;SDS011;21425;50.454;30.466;2022-12-07T09:38:14;20.45;;;10.43;;
35312;SDS011;21425;50.454;30.466;2022-12-07T09:40:40;28.13;;;11.93;;
35312;SDS011;21425;50.454;30.466;2022-12-07T09:43:11;30.40;;;11.57;;
35312;SDS011;21425;50.454;30.466;2022-12-07T09:45:40;31.95;;;12.95;;
35312;SDS011;21425;50.454;30.466;2022-12-07T09:48:08;24.98;;;9.85;;
35312;SDS011;21425;50.454;30.466;2022-12-07T09:50:42;22.33;;;10.98;;
35312;SDS011;21425;50.454;30.466;2022-12-07T09:53:09;29.30;;;10.90;;
35312;SDS011;21425;50.454;30.466;2022-12-07T09:55:44;27.45;;;12.00;;
35312;SDS011;21425;50.454;30.466;2022-12-07T09:58:12;28.75;;;12.90;;
35312;SDS011;21425;50.454;30.466;2022-12-07T10:00:46;38.22;;;13.43;;
35312;SDS011;21425;50.454;30.466;2022-12-07T10:03:12;40.00;;;14.10;;
35312;SDS011;21425;50.454;30.466;2022-12-07T10:05:39;35.38;;;13.45;;
35312;SDS011;21425;50.454;30.466;2022-12-07T10:08:12;24.95;;;11.45;;
35312;SDS011;21425;50.454;30.466;2022-12-07T10:10:39;31.27;;;13.95;;
35312;SDS011;21425;50.454;30.466;2022-12-07T10:13:09;34.25;;;13.40;;
35312;SDS011;21425;50.454;30.466;2022-12-07T10:15:51;34.85;;;12.38;;
35312;SDS011;21425;50.454;30.466;2022-12-07T10:21:02;43.28;;;14.55;;
35312;SDS011;21425;50.454;30.466;2022-12-07T10:23:28;43.80;;;15.13;;
35312;SDS011;21425;50.454;30.466;2022-12-07T10:25:54;42.75;;;15.57;;
35312;SDS011;21425;50.454;30.466;2022-12-07T10:28:20;33.35;;;14.18;;
35312;SDS011;21425;50.454;30.466;2022-12-07T10:30:57;40.97;;;15.18;;
35312;SDS011;21425;50.454;30.466;2022-12-07T10:33:36;35.50;;;12.75;;
35312;SDS011;21425;50.454;30.466;2022-12-07T10:36:20;31.10;;;12.55;;
35312;SDS011;21425;50.454;30.466;2022-12-07T10:38:48;23.92;;;11.35;;
35312;SDS011;21425;50.454;30.466;2022-12-07T10:41:25;34.33;;;14.40;;
35312;SDS011;21425;50.454;30.466;2022-12-07T10:43:54;27.33;;;12.45;;
35312;SDS011;21425;50.454;30.466;2022-12-07T10:46:36;25.23;;;12.43;;
35312;SDS011;21425;50.454;30.466;2022-12-07T11:08:05;30.83;;;13.05;;
35312;SDS011;21425;50.454;30.466;2022-12-07T11:16:34;45.75;;;15.93;;
35312;SDS011;21425;50.454;30.466;2022-12-07T11:21:58;38.97;;;14.82;;
35312;SDS011;21425;50.454;30.466;2022-12-07T11:27:32;34.38;;;13.88;;
35312;SDS011;21425;50.454;30.466;2022-12-07T11:37:55;34.08;;;14.98;;
35312;SDS011;21425;50.454;30.466;2022-12-07T11:40:35;47.58;;;17.92;;
35312;SDS011;21425;50.454;30.466;2022-12-07T11:45:47;48.42;;;20.02;;
35312;SDS011;21425;50.454;30.466;2022-12-07T11:48:28;59.45;;;20.85;;
35312;SDS011;21425;50.454;30.466;2022-12-07T11:51:00;50.75;;;19.73;;
35312;SDS011;21425;50.454;30.466;2022-12-07T11:53:29;37.78;;;17.15;;
35312;SDS011;21425;50.454;30.466;2022-12-07T11:56:05;43.63;;;18.45;;
35312;SDS011;21425;50.454;30.466;2022-12-07T12:06:36;32.53;;;14.75;;
35312;SDS011;21425;50.454;30.466;2022-12-07T12:09:14;34.55;;;16.23;;
35312;SDS011;21425;50.454;30.466;2022-12-07T12:12:01;49.63;;;18.85;;
35312;SDS011;21425;50.454;30.466;2022-12-07T12:14:45;48.80;;;20.85;;
35312;SDS011;21425;50.454;30.466;2022-12-07T12:17:27;58.25;;;23.27;;
35312;SDS011;21425;50.454;30.466;2022-12-07T12:25:47;76.15;;;23.67;;
35312;SDS011;21425;50.454;30.466;2022-12-07T12:28:27;54.92;;;21.02;;
35312;SDS011;21425;50.454;30.466;2022-12-07T12:31:17;42.65;;;19.52;;
35312;SDS011;21425;50.454;30.466;2022-12-07T12:34:01;53.72;;;19.92;;
35312;SDS011;21425;50.454;30.466;2022-12-07T12:51:44;47.45;;;18.30;;
35312;SDS011;21425;50.454;30.466;2022-12-07T12:56:47;50.10;;;20.48;;
35312;SDS011;21425;50.454;30.466;2022-12-07T12:59:25;50.08;;;19.92;;
35312;SDS011;21425;50.454;30.466;2022-12-07T16:50:29;91.55;;;31.48;;
35312;SDS011;21425;50.454;30.466;2022-12-07T16:52:55;94.47;;;31.70;;
35312;SDS011;21425;50.454;30.466;2022-12-07T16:55:20;86.05;;;25.58;;
35312;SDS011;21425;50.454;30.466;2022-12-07T16:57:46;77.55;;;26.95;;
35312;SDS011;21425;50.454;30.466;2022-12-07T17:00:11;68.75;;;25.83;;
35312;SDS011;21425;50.454;30.466;2022-12-07T17:02:37;85.75;;;28.35;;
35312;SDS011;21425;50.454;30.466;2022-12-07T17:05:03;80.28;;;27.92;;
35312;SDS011;21425;50.454;30.466;2022-12-07T17:07:29;76.07;;;24.55;;
35312;SDS011;21425;50.454;30.466;2022-12-07T17:09:54;76.93;;;27.90;;
35312;SDS011;21425;50.454;30.466;2022-12-07T17:12:20;78.70;;;27.38;;
35312;SDS011;21425;50.454;30.466;2022-12-07T17:14:45;79.82;;;24.48;;
35312;SDS011;21425;50.454;30.466;2022-12-07T17:19:55;78.38;;;25.75;;
35312;SDS011;21425;50.454;30.466;2022-12-07T17:22:21;80.47;;;24.98;;
35312;SDS011;21425;50.454;30.466;2022-12-07T17:24:47;68.07;;;23.85;;
35312;SDS011;21425;50.454;30.466;2022-12-07T17:27:12;74.70;;;24.58;;
35312;SDS011;21425;50.454;30.466;2022-12-07T17:29:38;72.97;;;24.38;;
35312;SDS011;21425;50.454;30.466;2022-12-07T17:32:03;63.75;;;23.75;;
35312;SDS011;21425;50.454;30.466;2022-12-07T17:34:29;90.47;;;28.20;;
35312;SDS011;21425;50.454;30.466;2022-12-07T17:36:55;75.93;;;23.52;;
35312;SDS011;21425;50.454;30.466;2022-12-07T17:39:20;83.85;;;26.30;;
35312;SDS011;21425;50.454;30.466;2022-12-07T17:41:46;109.63;;;28.23;;
35312;SDS011;21425;50.454;30.466;2022-12-07T17:44:30;120.03;;;32.65;;
35312;SDS011;21425;50.454;30.466;2022-12-07T17:46:56;116.00;;;30.60;;
35312;SDS011;21425;50.454;30.466;2022-12-07T17:49:23;100.88;;;30.05;;
35312;SDS011;21425;50.454;30.466;2022-12-07T17:51:50;133.05;;;32.97;;
35312;SDS011;21425;50.454;30.466;2022-12-07T17:54:34;120.68;;;30.90;;
35312;SDS011;21425;50.454;30.466;2022-12-07T17:57:00;118.90;;;33.50;;
35312;SDS011;21425;50.454;30.466;2022-12-07T17:59:26;105.78;;;30.05;;
35312;SDS011;21425;50.454;30.466;2022-12-07T18:01:52;180.90;;;35.60;;
35312;SDS011;21425;50.454;30.466;2022-12-07T18:04:17;146.23;;;31.77;;
35312;SDS011;21425;50.454;30.466;2022-12-07T18:06:43;144.70;;;33.13;;
35312;SDS011;21425;50.454;30.466;2022-12-07T18:09:09;154.18;;;31.10;;
35312;SDS011;21425;50.454;30.466;2022-12-07T18:11:35;86.05;;;24.38;;
35312;SDS011;21425;50.454;30.466;2022-12-07T18:14:01;190.27;;;34.53;;
35312;SDS011;21425;50.454;30.466;2022-12-07T18:16:28;154.57;;;30.90;;
35312;SDS011;21425;50.454;30.466;2022-12-07T18:18:57;117.45;;;27.75;;
35312;SDS011;21425;50.454;30.466;2022-12-07T18:21:25;132.27;;;31.30;;
35312;SDS011;21425;50.454;30.466;2022-12-07T18:23:53;376.23;;;57.85;;
35312;SDS011;21425;50.454;30.466;2022-12-07T18:26:22;192.00;;;35.22;;
35312;SDS011;21425;50.454;30.466;2022-12-07T18:28:49;92.75;;;25.42;;
35312;SDS011;21425;50.454;30.466;2022-12-07T18:31:14;179.70;;;36.65;;
35312;SDS011;21425;50.454;30.466;2022-12-07T18:33:40;88.45;;;26.55;;
35312;SDS011;21425;50.454;30.466;2022-12-07T18:36:07;71.68;;;24.92;;
35312;SDS011;21425;50.454;30.466;2022-12-07T18:38:33;75.57;;;24.67;;
35312;SDS011;21425;50.454;30.466;2022-12-07T18:41:00;64.85;;;22.17;;
35312;SDS011;21425;50.454;30.466;2022-12-07T18:43:26;77.38;;;26.98;;
35312;SDS011;21425;50.454;30.466;2022-12-07T18:45:52;90.60;;;31.65;;
35312;SDS011;21425;50.454;30.466;2022-12-07T18:48:19;91.70;;;29.83;;
35312;SDS011;21425;50.454;30.466;2022-12-07T18:50:46;86.43;;;30.73;;
35312;SDS011;21425;50.454;30.466;2022-12-07T18:53:22;107.63;;;31.70;;
35312;SDS011;21425;50.454;30.466;2022-12-07T18:55:48;81.47;;;29.33;;
35312;SDS011;21425;50.454;30.466;2022-12-07T18:58:13;70.15;;;26.08;;
35312;SDS011;21425;50.454;30.466;2022-12-07T19:00:39;69.38;;;25.80;;
35312;SDS011;21425;50.454;30.466;2022-12-07T19:03:04;78.80;;;26.05;;
35312;SDS011;21425;50.454;30.466;2022-12-07T19:05:30;88.57;;;27.95;;
35312;SDS011;21425;50.454;30.466;2022-12-07T19:07:56;70.75;;;23.58;;
35312;SDS011;21425;50.454;30.466;2022-12-07T19:10:21;69.18;;;25.85;;
35312;SDS011;21425;50.454;30.466;2022-12-07T19:12:48;75.88;;;26.20;;
35312;SDS011;21425;50.454;30.466;2022-12-07T19:15:14;75.65;;;27.35;;
35312;SDS011;21425;50.454;30.466;2022-12-07T19:17:40;77.07;;;28.67;;
35312;SDS011;21425;50.454;30.466;2022-12-07T19:20:07;79.13;;;27.70;;
35312;SDS011;21425;50.454;30.466;2022-12-07T19:22:36;75.00;;;26.10;;
35312;SDS011;21425;50.454;30.466;2022-12-07T19:25:02;70.85;;;24.92;;
35312;SDS011;21425;50.454;30.466;2022-12-07T19:27:28;75.43;;;27.52;;
35312;SDS011;21425;50.454;30.466;2022-12-07T19:29:56;62.97;;;23.38;;
35312;SDS011;21425;50.454;30.466;2022-12-07T19:32:22;63.72;;;23.40;;
35312;SDS011;21425;50.454;30.466;2022-12-07T19:34:48;52.42;;;20.27;;
35312;SDS011;21425;50.454;30.466;2022-12-07T19:37:14;61.03;;;22.83;;
35312;SDS011;21425;50.454;30.466;2022-12-07T19:39:40;55.50;;;22.20;;
35312;SDS011;21425;50.454;30.466;2022-12-07T19:42:07;56.00;;;21.60;;
35312;SDS011;21425;50.454;30.466;2022-12-07T19:44:34;57.33;;;22.83;;
35312;SDS011;21425;50.454;30.466;2022-12-07T19:47:00;59.30;;;22.63;;
35312;SDS011;21425;50.454;30.466;2022-12-07T19:49:28;59.38;;;22.27;;
35312;SDS011;21425;50.454;30.466;2022-12-07T19:51:56;58.20;;;22.95;;
35312;SDS011;21425;50.454;30.466;2022-12-07T19:54:28;54.13;;;19.95;;
35312;SDS011;21425;50.454;30.466;2022-12-07T19:56:54;50.85;;;21.00;;
35312;SDS011;21425;50.454;30.466;2022-12-07T19:59:22;54.88;;;22.38;;
35312;SDS011;21425;50.454;30.466;2022-12-07T20:01:50;58.22;;;21.17;;
35312;SDS011;21425;50.454;30.466;2022-12-07T20:04:16;53.67;;;21.30;;
35312;SDS011;21425;50.454;30.466;2022-12-07T20:06:45;54.65;;;20.85;;